createdAt,value
2022-07-25T00:00:54.681Z,0.00
2022-07-25T00:01:54.778Z,0.00
2022-07-25T00:02:54.655Z,0.00
2022-07-25T00:03:54.713Z,0.00
2022-07-25T00:04:54.694Z,0.00
2022-07-25T00:05:54.633Z,0.00
2022-07-25T00:06:54.635Z,0.00
2022-07-25T00:07:54.638Z,0.00
2022-07-25T00:08:54.601Z,0.00
2022-07-25T00:09:54.595Z,0.00
2022-07-25T00:10:54.585Z,0.00
2022-07-25T00:11:54.589Z,0.00
2022-07-25T00:12:54.563Z,0.00
2022-07-25T00:13:54.553Z,0.00
2022-07-25T00:14:54.544Z,0.00
2022-07-25T00:15:54.583Z,0.00
2022-07-25T00:16:54.552Z,0.00
2022-07-25T00:17:54.514Z,0.00
2022-07-25T00:18:54.507Z,0.00
2022-07-25T00:19:54.494Z,0.00
2022-07-25T00:20:54.492Z,0.00
2022-07-25T00:21:54.522Z,0.00
2022-07-25T00:22:54.469Z,0.00
2022-07-25T00:23:54.456Z,0.00
2022-07-25T00:24:54.457Z,0.00
2022-07-25T00:25:54.438Z,0.00
2022-07-25T00:26:54.440Z,0.00
2022-07-25T00:27:54.438Z,0.00
2022-07-25T00:28:54.420Z,0.00
2022-07-25T00:29:54.398Z,0.00
2022-07-25T00:30:54.492Z,0.00
2022-07-25T00:31:54.379Z,0.00
2022-07-25T00:32:54.401Z,0.00
2022-07-25T00:33:54.361Z,0.00
2022-07-25T00:34:54.363Z,0.00
2022-07-25T00:35:54.345Z,0.00
2022-07-25T00:36:54.338Z,0.00
2022-07-25T00:37:54.329Z,0.00
2022-07-25T00:38:54.336Z,0.00
2022-07-25T00:39:54.319Z,0.00
2022-07-25T00:40:55.705Z,0.00
2022-07-25T00:41:54.284Z,0.00
2022-07-25T00:42:54.283Z,0.00
2022-07-25T00:43:54.304Z,0.00
2022-07-25T00:44:54.273Z,0.00
2022-07-25T00:45:54.250Z,0.00
2022-07-25T00:46:54.298Z,0.00
2022-07-25T00:47:54.239Z,0.00
2022-07-25T00:48:54.324Z,0.00
2022-07-25T00:49:54.219Z,0.00
2022-07-25T00:50:54.219Z,0.00
2022-07-25T00:51:54.225Z,0.00
2022-07-25T00:52:54.204Z,0.00
2022-07-25T00:53:54.201Z,0.00
2022-07-25T00:54:54.224Z,0.00
2022-07-25T00:55:54.164Z,0.00
2022-07-25T00:56:54.157Z,0.00
2022-07-25T00:57:54.149Z,0.00
2022-07-25T00:58:54.151Z,0.00
2022-07-25T00:59:54.126Z,0.00
2022-07-25T01:00:54.124Z,0.00
2022-07-25T01:01:54.133Z,0.00
2022-07-25T01:02:54.191Z,0.00
2022-07-25T01:03:54.117Z,0.00
2022-07-25T01:04:54.091Z,0.00
2022-07-25T01:05:54.144Z,0.00
2022-07-25T01:06:54.082Z,0.00
2022-07-25T01:07:54.053Z,0.00
2022-07-25T01:08:54.050Z,0.00
2022-07-25T01:09:54.049Z,0.00
2022-07-25T01:10:54.029Z,0.00
2022-07-25T01:11:54.021Z,0.00
2022-07-25T01:12:54.017Z,0.00
2022-07-25T01:13:53.999Z,0.00
2022-07-25T01:14:54.010Z,0.00
2022-07-25T01:15:54.096Z,0.00
2022-07-25T01:16:53.973Z,0.00
2022-07-25T01:17:53.964Z,0.00
2022-07-25T01:18:53.989Z,0.00
2022-07-25T01:19:53.965Z,0.00
2022-07-25T01:20:53.939Z,0.00
2022-07-25T01:21:53.925Z,0.00
2022-07-25T01:22:53.928Z,0.00
2022-07-25T01:23:53.924Z,0.00
2022-07-25T01:24:53.915Z,0.00
2022-07-25T01:25:53.907Z,0.00
2022-07-25T01:26:53.883Z,0.00
2022-07-25T01:27:55.889Z,0.00
2022-07-25T01:28:53.870Z,0.00
2022-07-25T01:29:53.853Z,0.00
2022-07-25T01:30:53.915Z,0.00
2022-07-25T01:31:53.838Z,0.00
2022-07-25T01:32:53.829Z,0.00
2022-07-25T01:33:53.817Z,0.00
2022-07-25T01:34:53.826Z,0.00
2022-07-25T01:35:53.825Z,0.00
2022-07-25T01:36:53.797Z,0.00
2022-07-25T01:37:53.782Z,0.00
2022-07-25T01:38:54.115Z,0.00
2022-07-25T01:39:53.768Z,0.00
2022-07-25T01:40:53.772Z,0.00
2022-07-25T01:41:53.746Z,0.00
2022-07-25T01:42:53.765Z,0.00
2022-07-25T01:43:53.735Z,0.00
2022-07-25T01:44:53.742Z,0.00
2022-07-25T01:45:53.837Z,0.00
2022-07-25T01:46:53.709Z,0.00
2022-07-25T01:47:53.744Z,0.00
2022-07-25T01:48:53.773Z,0.00
2022-07-25T01:49:53.676Z,0.00
2022-07-25T01:50:53.671Z,0.00
2022-07-25T01:51:53.676Z,0.00
2022-07-25T01:52:53.654Z,0.00
2022-07-25T01:53:53.641Z,0.00
2022-07-25T01:54:53.640Z,0.00
2022-07-25T01:55:53.642Z,0.00
2022-07-25T01:56:53.617Z,0.00
2022-07-25T01:57:53.608Z,0.00
2022-07-25T01:58:53.616Z,0.00
2022-07-25T01:59:53.597Z,0.00
2022-07-25T02:00:53.606Z,0.00
2022-07-25T02:01:53.626Z,0.00
2022-07-25T02:02:53.593Z,0.00
2022-07-25T02:03:53.580Z,0.00
2022-07-25T02:04:53.681Z,0.00
2022-07-25T02:05:53.669Z,0.00
2022-07-25T02:06:53.637Z,0.00
2022-07-25T02:25:19.042Z,0.00
2022-07-25T02:26:39.790Z,0.00
2022-07-25T02:34:32.742Z,0.00
2022-07-25T02:34:54.236Z,0.00
2022-07-25T02:35:40.961Z,0.00
2022-07-25T02:36:44.998Z,0.00
2022-07-25T02:37:52.572Z,0.00
2022-07-25T02:38:40.769Z,0.00
2022-07-25T02:40:42.337Z,0.00
2022-07-25T02:40:54.979Z,0.00
2022-07-25T02:41:53.493Z,0.00
2022-07-25T02:43:11.128Z,0.00
2022-07-25T02:48:22.227Z,0.00
2022-07-25T02:48:33.208Z,0.00
2022-07-25T02:49:37.108Z,0.00
2022-07-25T03:08:10.948Z,0.00
2022-07-25T03:11:40.904Z,0.00
2022-07-25T03:16:53.062Z,0.00
2022-07-25T03:27:55.681Z,4.00
2022-07-25T03:47:20.604Z,32.00
2022-07-25T03:54:52.615Z,59.00
2022-07-25T03:56:45.214Z,61.00
2022-07-25T03:56:55.395Z,68.00
2022-07-25T03:57:49.996Z,75.00
2022-07-25T03:58:49.989Z,81.00
2022-07-25T04:09:41.464Z,521.00
2022-07-25T04:26:34.237Z,589.00
2022-07-25T04:29:45.942Z,616.00
2022-07-25T04:30:28.606Z,612.00
2022-07-25T04:50:05.333Z,1550.00
2022-07-25T05:21:46.110Z,482.00
2022-07-25T05:21:55.365Z,474.00
2022-07-25T05:23:46.566Z,482.00
2022-07-25T05:23:56.635Z,487.00
2022-07-25T05:24:57.584Z,486.00
2022-07-25T05:25:55.744Z,486.00
2022-07-25T05:27:06.072Z,489.00
2022-07-25T05:29:54.573Z,493.00
2022-07-25T05:30:51.089Z,488.00
2022-07-25T05:31:51.150Z,494.00
2022-07-25T05:32:59.144Z,492.00
2022-07-25T05:33:50.618Z,499.00
2022-07-25T05:34:51.932Z,498.00
2022-07-25T05:35:54.203Z,498.00
2022-07-25T05:36:52.522Z,507.00
2022-07-25T05:40:31.270Z,499.00
2022-07-25T05:45:26.272Z,505.00
2022-07-25T05:53:13.196Z,499.00
2022-07-25T05:53:29.282Z,498.00
2022-07-25T05:54:34.131Z,501.00
2022-07-25T06:06:37.306Z,481.00
2022-07-25T06:08:04.828Z,478.00
2022-07-25T06:11:54.353Z,474.00
2022-07-25T06:13:17.758Z,472.00
2022-07-25T06:14:04.563Z,472.00
2022-07-25T06:15:32.397Z,470.00
2022-07-25T06:16:12.968Z,469.00
2022-07-25T06:16:45.897Z,464.00
2022-07-25T06:17:46.131Z,466.00
2022-07-25T06:19:27.883Z,467.00
2022-07-25T06:19:38.570Z,473.00
2022-07-25T06:20:50.386Z,462.00
2022-07-25T06:21:40.110Z,459.00
2022-07-25T06:23:28.596Z,457.00
2022-07-25T06:23:44.098Z,464.00
2022-07-25T06:24:43.955Z,457.00
2022-07-25T06:25:38.444Z,451.00
2022-07-25T06:27:18.562Z,446.00
2022-07-25T06:40:27.301Z,424.00
2022-07-25T06:41:43.086Z,429.00
2022-07-25T06:42:44.036Z,422.00
2022-07-25T06:45:01.457Z,426.00
2022-07-25T06:46:44.223Z,418.00
2022-07-25T06:46:49.107Z,412.00
2022-07-25T06:47:49.007Z,409.00
2022-07-25T06:48:49.055Z,408.00
2022-07-25T06:49:50.790Z,410.00
2022-07-25T06:51:07.774Z,400.00
2022-07-25T06:51:50.075Z,407.00
2022-07-25T06:53:00.737Z,402.00
2022-07-25T06:53:49.007Z,394.00
2022-07-25T06:54:48.964Z,391.00
2022-07-25T06:55:48.990Z,395.00
2022-07-25T06:56:50.184Z,395.00
2022-07-25T06:57:49.670Z,394.00
2022-07-25T06:58:49.697Z,385.00
2022-07-25T06:59:48.908Z,391.00
2022-07-25T07:00:48.979Z,380.00
2022-07-25T07:01:51.633Z,380.00
2022-07-25T07:02:48.870Z,386.00
2022-07-25T07:03:48.988Z,374.00
2022-07-25T07:04:48.855Z,376.00
2022-07-25T07:05:48.833Z,371.00
2022-07-25T07:06:48.912Z,370.00
2022-07-25T07:07:48.848Z,368.00
2022-07-25T07:08:48.837Z,368.00
2022-07-25T07:09:48.813Z,366.00
2022-07-25T07:10:48.837Z,365.00
2022-07-25T07:11:48.768Z,361.00
2022-07-25T07:12:48.787Z,359.00
2022-07-25T07:13:48.771Z,363.00
2022-07-25T07:15:07.535Z,358.00
2022-07-25T07:15:49.113Z,361.00
2022-07-25T07:16:51.566Z,360.00
2022-07-25T07:17:57.145Z,357.00
2022-07-25T07:18:49.480Z,355.00
2022-07-25T07:19:48.699Z,352.00
2022-07-25T07:20:48.968Z,355.00
2022-07-25T07:21:48.765Z,356.00
2022-07-25T07:22:48.738Z,353.00
2022-07-25T07:23:48.736Z,347.00
2022-07-25T07:24:48.777Z,348.00
2022-07-25T07:25:48.650Z,345.00
2022-07-25T07:26:48.670Z,343.00
2022-07-25T07:27:48.652Z,342.00
2022-07-25T07:28:48.651Z,341.00
2022-07-25T07:29:48.645Z,339.00
2022-07-25T07:31:48.813Z,338.00
2022-07-25T07:32:48.612Z,337.00
2022-07-25T07:33:48.622Z,339.00
2022-07-25T07:34:48.599Z,339.00
2022-07-25T07:35:48.592Z,333.00
2022-07-25T07:36:48.691Z,330.00
2022-07-25T07:37:51.488Z,330.00
2022-07-25T07:38:49.253Z,329.00
2022-07-25T08:06:12.327Z,289.00
2022-07-25T08:07:58.733Z,289.00
2022-07-25T08:08:03.532Z,281.00
2022-07-25T08:09:03.874Z,281.00
2022-07-25T08:10:04.791Z,280.00
2022-07-25T08:11:05.241Z,279.00
2022-07-25T08:12:05.607Z,282.00
2022-07-25T08:13:07.195Z,278.00
2022-07-25T08:18:17.483Z,270.00
2022-07-25T08:22:42.259Z,263.00
2022-07-25T08:23:46.242Z,265.00
2022-07-25T08:29:59.412Z,252.00
2022-07-25T08:31:00.458Z,254.00
2022-07-25T08:32:05.589Z,253.00
2022-07-25T08:40:56.572Z,249.00
2022-07-25T08:41:56.601Z,246.00
2022-07-25T08:42:56.553Z,247.00
2022-07-25T08:43:56.555Z,248.00
2022-07-25T08:44:58.919Z,248.00
2022-07-25T08:45:56.609Z,247.00
2022-07-25T08:46:56.560Z,251.00
2022-07-25T08:47:56.511Z,249.00
2022-07-25T08:49:04.660Z,243.00
2022-07-25T08:50:04.450Z,246.00
2022-07-25T08:50:56.719Z,244.00
2022-07-25T08:51:56.729Z,243.00
2022-07-25T08:53:16.512Z,247.00
2022-07-25T08:55:47.738Z,240.00
2022-07-25T08:56:49.552Z,238.00
2022-07-25T08:57:48.107Z,240.00
2022-07-25T09:00:22.325Z,240.00
2022-07-25T09:00:27.124Z,245.00
2022-07-25T09:01:35.377Z,241.00
2022-07-25T18:55:59.472Z,2.00
2022-07-25T18:56:59.510Z,2.00
2022-07-25T18:57:59.538Z,0.00
2022-07-25T18:58:59.492Z,2.00
2022-07-25T19:00:02.439Z,2.00
2022-07-25T19:00:59.518Z,0.00
2022-07-25T19:01:59.543Z,0.00
2022-07-25T19:02:59.489Z,0.00
2022-07-25T19:03:59.445Z,1.00
2022-07-25T19:04:59.462Z,1.00
2022-07-25T19:06:03.069Z,1.00
2022-07-25T19:06:59.430Z,1.00
2022-07-25T19:07:59.426Z,1.00
2022-07-25T19:08:59.404Z,1.00
2022-07-25T19:09:59.372Z,1.00
2022-07-25T19:10:59.368Z,1.00
2022-07-25T19:11:59.404Z,0.00
2022-07-25T19:12:59.422Z,0.00
2022-07-25T19:13:59.426Z,0.00
2022-07-25T19:14:59.397Z,0.00
2022-07-25T19:15:59.451Z,0.00
2022-07-25T19:16:59.374Z,0.00
2022-07-25T19:17:59.381Z,0.00
2022-07-25T19:18:59.358Z,0.00
2022-07-25T19:19:59.363Z,0.00
2022-07-25T19:20:59.336Z,0.00
2022-07-25T19:21:59.334Z,0.00
2022-07-25T19:22:59.313Z,0.00
2022-07-25T19:23:59.314Z,0.00
2022-07-25T19:24:59.317Z,0.00
2022-07-25T19:25:59.286Z,0.00
2022-07-25T19:26:59.297Z,0.00
2022-07-25T19:27:59.286Z,0.00
2022-07-25T19:28:59.319Z,0.00
2022-07-25T19:29:59.300Z,0.00
2022-07-25T19:30:59.327Z,0.00
2022-07-25T19:31:59.245Z,0.00
2022-07-25T19:32:59.238Z,0.00
2022-07-25T19:33:59.237Z,0.00
2022-07-25T19:34:59.249Z,0.00
2022-07-25T19:35:59.233Z,0.00
2022-07-25T19:36:59.247Z,0.00
2022-07-25T19:37:59.247Z,0.00
2022-07-25T19:38:59.192Z,0.00
2022-07-25T19:40:03.976Z,0.00
2022-07-25T19:42:54.161Z,0.00
2022-07-25T19:43:54.352Z,0.00
2022-07-25T19:44:54.206Z,0.00
2022-07-25T19:45:54.287Z,0.00
2022-07-25T19:46:54.191Z,0.00
2022-07-25T19:47:54.256Z,0.00
2022-07-25T19:48:54.370Z,0.00
2022-07-25T19:49:54.269Z,0.00
2022-07-25T19:50:54.184Z,0.00
2022-07-25T19:51:54.145Z,0.00
2022-07-25T19:52:54.137Z,0.00
2022-07-25T19:53:54.119Z,0.00
2022-07-25T19:54:54.129Z,0.00
2022-07-25T19:55:54.127Z,0.00
2022-07-25T19:56:54.117Z,0.00
2022-07-25T19:57:54.087Z,0.00
2022-07-25T19:58:54.112Z,0.00
2022-07-25T19:59:54.077Z,0.00
2022-07-25T20:00:54.089Z,0.00
2022-07-25T20:01:54.121Z,0.00
2022-07-25T20:02:54.226Z,0.00
2022-07-25T20:03:54.042Z,0.00
2022-07-25T20:04:54.034Z,0.00
2022-07-25T20:05:54.044Z,0.00
2022-07-25T20:06:54.025Z,0.00
2022-07-25T20:07:54.008Z,0.00
2022-07-25T20:08:54.007Z,0.00
2022-07-25T20:09:53.983Z,0.00
2022-07-25T20:10:53.992Z,0.00
2022-07-25T20:11:53.975Z,0.00
2022-07-25T20:12:58.130Z,0.00
2022-07-25T20:13:53.953Z,0.00
2022-07-25T20:14:53.958Z,0.00
2022-07-25T20:15:53.981Z,0.00
2022-07-25T20:16:55.674Z,0.00
2022-07-25T20:17:53.968Z,0.00
2022-07-25T20:18:53.941Z,0.00
2022-07-25T20:19:53.913Z,0.00
2022-07-25T20:20:53.887Z,0.00
2022-07-25T20:21:54.043Z,0.00
2022-07-25T20:22:53.871Z,0.00
2022-07-25T20:23:53.872Z,0.00
2022-07-25T20:24:53.854Z,0.00
2022-07-25T20:25:53.839Z,0.00
2022-07-25T20:26:53.849Z,0.00
2022-07-25T20:27:53.820Z,0.00
2022-07-25T20:28:53.828Z,0.00
2022-07-25T20:29:53.803Z,0.00
2022-07-25T20:30:53.896Z,0.00
2022-07-25T20:31:53.801Z,0.00
2022-07-25T20:32:53.793Z,0.00
2022-07-25T20:33:53.785Z,0.00
2022-07-25T20:34:53.758Z,0.00
2022-07-25T20:35:53.750Z,0.00
2022-07-25T20:36:53.774Z,0.00
2022-07-25T20:37:53.732Z,0.00
2022-07-25T20:38:53.728Z,0.00
2022-07-25T20:39:53.713Z,0.00
2022-07-25T20:40:53.708Z,0.00
2022-07-25T20:41:53.711Z,0.00
2022-07-25T20:42:53.698Z,0.00
2022-07-25T20:43:53.682Z,0.00
2022-07-25T20:44:53.669Z,0.00
2022-07-25T20:45:53.734Z,0.00
2022-07-25T20:46:53.677Z,0.00
2022-07-25T20:47:53.664Z,0.00
2022-07-25T20:48:53.702Z,0.00
2022-07-25T20:49:53.614Z,0.00
2022-07-25T20:50:53.614Z,0.00
2022-07-25T20:51:54.794Z,0.00
2022-07-25T20:52:53.596Z,0.00
2022-07-25T20:53:53.697Z,0.00
2022-07-25T20:54:53.571Z,0.00
2022-07-25T20:55:53.596Z,0.00
2022-07-25T20:56:53.577Z,0.00
2022-07-25T20:57:53.539Z,0.00
2022-07-25T20:58:53.536Z,0.00
2022-07-25T20:59:53.523Z,0.00
2022-07-25T21:00:53.584Z,0.00
2022-07-25T21:01:53.519Z,0.00
2022-07-25T21:02:53.599Z,0.00
2022-07-25T21:03:53.488Z,0.00
2022-07-25T21:04:53.479Z,0.00
2022-07-25T21:05:53.467Z,0.00
2022-07-25T21:06:53.499Z,0.00
2022-07-25T21:07:53.473Z,0.00
2022-07-25T21:08:53.442Z,0.00
2022-07-25T21:09:53.430Z,0.00
2022-07-25T21:10:53.425Z,0.00
2022-07-25T21:11:53.424Z,0.00
2022-07-25T21:12:53.403Z,0.00
2022-07-25T21:13:53.405Z,0.00
2022-07-25T21:14:53.436Z,0.00
2022-07-25T21:15:53.373Z,0.00
2022-07-25T21:16:53.430Z,0.00
2022-07-25T21:17:53.353Z,0.00
2022-07-25T21:18:53.365Z,0.00
2022-07-25T21:19:53.337Z,0.00
2022-07-25T21:20:53.348Z,0.00
2022-07-25T21:21:53.325Z,0.00
2022-07-25T21:22:53.319Z,0.00
2022-07-25T21:23:53.311Z,0.00
2022-07-25T21:24:53.310Z,0.00
2022-07-25T21:25:53.286Z,0.00
2022-07-25T21:26:53.283Z,0.00
2022-07-25T21:27:53.270Z,0.00
2022-07-25T21:28:53.286Z,0.00
2022-07-25T21:29:53.241Z,0.00
2022-07-25T21:30:53.241Z,0.00
2022-07-25T21:31:54.271Z,0.00
2022-07-25T21:32:53.219Z,0.00
2022-07-25T21:33:53.228Z,0.00
2022-07-25T21:34:53.211Z,0.00
2022-07-25T21:35:53.830Z,0.00
2022-07-25T21:36:53.183Z,0.00
2022-07-25T21:37:53.171Z,0.00
2022-07-25T21:38:53.166Z,0.00
2022-07-25T21:39:53.192Z,0.00
2022-07-25T21:40:53.149Z,0.00
2022-07-25T21:41:54.802Z,0.00
2022-07-25T21:42:53.131Z,0.00
2022-07-25T21:43:53.111Z,0.00
2022-07-25T21:44:53.124Z,0.00
2022-07-25T21:45:53.170Z,0.00
2022-07-25T21:46:53.100Z,0.00
2022-07-25T21:47:53.097Z,0.00
2022-07-25T21:48:54.304Z,0.00
2022-07-25T21:49:53.075Z,0.00
2022-07-25T21:50:53.057Z,0.00
2022-07-25T21:51:53.044Z,0.00
2022-07-25T21:52:53.040Z,0.00
2022-07-25T21:53:53.023Z,0.00
2022-07-25T21:54:53.050Z,0.00
2022-07-25T21:55:53.005Z,0.00
2022-07-25T21:56:53.001Z,0.00
2022-07-25T21:57:52.994Z,0.00
2022-07-25T21:58:52.980Z,0.00
2022-07-25T21:59:52.966Z,0.00
2022-07-25T22:00:53.039Z,0.00
2022-07-25T22:01:52.950Z,0.00
2022-07-25T22:02:52.941Z,0.00
2022-07-25T22:03:52.968Z,0.00
2022-07-25T22:04:52.941Z,0.00
2022-07-25T22:05:52.928Z,0.00
2022-07-25T22:06:52.906Z,0.00
2022-07-25T22:07:52.890Z,0.00
2022-07-25T22:08:52.894Z,0.00
2022-07-25T22:09:52.876Z,0.00
2022-07-25T22:10:52.895Z,0.00
2022-07-25T22:11:52.857Z,0.00
2022-07-25T22:12:52.850Z,0.00
2022-07-25T22:13:52.840Z,0.00
2022-07-25T22:14:52.832Z,0.00
2022-07-25T22:15:52.833Z,0.00
2022-07-25T22:16:52.882Z,0.00
2022-07-25T22:17:52.797Z,0.00
2022-07-25T22:18:52.798Z,0.00
2022-07-25T22:19:52.778Z,0.00
2022-07-25T22:20:52.787Z,0.00
2022-07-25T22:21:52.762Z,0.00
2022-07-25T22:22:52.793Z,0.00
2022-07-25T22:23:52.748Z,0.00
2022-07-25T22:24:52.735Z,0.00
2022-07-25T22:25:52.739Z,0.00
2022-07-25T22:26:52.724Z,0.00
2022-07-25T22:27:52.708Z,0.00
2022-07-25T22:28:52.700Z,0.00
2022-07-25T22:29:52.697Z,0.00
2022-07-25T22:30:52.735Z,0.00
2022-07-25T22:31:52.763Z,0.00
2022-07-25T22:32:52.680Z,0.00
2022-07-25T22:33:52.649Z,0.00
2022-07-25T22:34:52.644Z,0.00
2022-07-25T22:35:52.629Z,0.00
2022-07-25T22:36:52.645Z,0.00
2022-07-25T22:37:52.640Z,0.00
2022-07-25T22:38:52.606Z,0.00
2022-07-25T22:39:53.941Z,0.00
2022-07-25T22:40:52.593Z,0.00
2022-07-25T22:41:52.595Z,0.00
2022-07-25T22:42:52.569Z,0.00
2022-07-25T22:43:57.299Z,0.00
2022-07-25T22:44:52.566Z,0.00
2022-07-25T22:45:52.610Z,0.00
2022-07-25T22:46:52.549Z,0.00
2022-07-25T22:47:52.515Z,0.00
2022-07-25T22:48:52.591Z,0.00
2022-07-25T22:49:52.501Z,0.00
2022-07-25T22:50:52.508Z,0.00
2022-07-25T22:51:52.499Z,0.00
2022-07-25T22:52:52.478Z,0.00
2022-07-25T22:53:52.462Z,0.00
2022-07-25T22:54:52.458Z,0.00
2022-07-25T22:55:52.445Z,0.00
2022-07-25T22:56:52.455Z,0.00
2022-07-25T22:57:52.436Z,0.00
2022-07-25T22:58:52.424Z,0.00
2022-07-25T22:59:52.409Z,0.00
2022-07-25T23:00:52.419Z,0.00
2022-07-25T23:01:52.401Z,0.00
2022-07-25T23:02:52.434Z,0.00
2022-07-25T23:03:52.433Z,0.00
2022-07-25T23:04:52.366Z,0.00
2022-07-25T23:05:53.850Z,0.00
2022-07-25T23:06:52.373Z,0.00
2022-07-25T23:07:52.342Z,0.00
2022-07-25T23:08:52.327Z,0.00
2022-07-25T23:09:52.321Z,0.00
2022-07-25T23:10:52.313Z,0.00
2022-07-25T23:11:52.311Z,0.00
2022-07-25T23:12:52.291Z,0.00
2022-07-25T23:13:52.293Z,0.00
2022-07-25T23:14:52.276Z,0.00
2022-07-25T23:15:52.261Z,0.00
2022-07-25T23:16:52.316Z,0.00
2022-07-25T23:17:52.240Z,0.00
2022-07-25T23:18:52.239Z,0.00
2022-07-25T23:19:52.221Z,0.00
2022-07-25T23:20:52.223Z,0.00
2022-07-25T23:21:52.268Z,0.00
2022-07-25T23:22:52.203Z,0.00
2022-07-25T23:23:52.224Z,0.00
2022-07-25T23:24:52.181Z,0.00
2022-07-25T23:25:52.166Z,0.00
2022-07-25T23:26:52.175Z,0.00
2022-07-25T23:27:52.160Z,0.00
2022-07-25T23:28:52.142Z,0.00
2022-07-25T23:29:52.128Z,0.00
2022-07-25T23:30:52.123Z,0.00
2022-07-25T23:31:52.216Z,0.00
2022-07-25T23:32:52.100Z,0.00
2022-07-25T23:33:52.093Z,0.00
2022-07-25T23:34:52.082Z,0.00
2022-07-25T23:35:52.103Z,0.00
2022-07-25T23:36:52.063Z,0.00
2022-07-25T23:37:52.058Z,0.00
2022-07-25T23:38:52.051Z,0.00
2022-07-25T23:39:52.049Z,0.00
2022-07-25T23:40:52.040Z,0.00
2022-07-25T23:41:52.021Z,0.00
2022-07-25T23:42:52.007Z,0.00
2022-07-25T23:43:59.324Z,0.00
2022-07-25T23:44:51.993Z,0.00
2022-07-25T23:45:51.995Z,0.00
2022-07-25T23:46:52.019Z,0.00
2022-07-25T23:47:51.974Z,0.00
2022-07-25T23:48:52.006Z,0.00
2022-07-25T23:49:51.946Z,0.00
2022-07-25T23:50:51.944Z,0.00
2022-07-25T23:51:51.929Z,0.00
2022-07-25T23:52:51.921Z,0.00
2022-07-25T23:53:51.920Z,0.00
2022-07-25T23:54:51.897Z,0.00
2022-07-25T23:55:51.906Z,0.00
2022-07-25T23:56:51.875Z,0.00
2022-07-25T23:57:51.869Z,0.00
2022-07-25T23:58:51.858Z,0.00
2022-07-25T23:59:51.861Z,0.00
